Time;durP1;ratioP1;P1;durP2;ratioP2;P2;SDS_P1;SDS_P2;PMS_P1;PMS_P2;Temp;Humidity;BMP_temperature;BMP_pressure;BME280_temperature;BME280_humidity;BME280_pressure;Samples;Min_cycle;Max_cycle;Signal;HPM_P1;HPM_P2
2022/01/18 00:00:14;;;;;;;2.33;1.23;;;;;;;-146.07;100.00;70291.31;10351058;28;20308;-75
2022/01/18 00:05:15;;;;;;;2.28;1.42;;;;;;;-146.07;100.00;70291.31;10350912;28;20512;-76
2022/01/18 00:10:16;;;;;;;2.17;1.83;;;;;;;-146.07;100.00;70291.31;10367191;28;20037;-76
2022/01/18 00:20:35;;;;;;;5.07;1.75;;;;;;;-146.07;100.00;70291.31;10367679;28;20165;-76
2022/01/18 00:25:39;;;;;;;2.97;2.30;;;;;;;-146.07;100.00;70291.31;10367740;28;20030;-74
2022/01/18 00:35:59;;;;;;;3.35;2.08;;;;;;;-146.07;100.00;70291.31;10366870;28;20033;-70
2022/01/18 00:41:00;;;;;;;;;;;;;;;-146.07;100.00;70291.31;10349953;28;20060;-73
2022/01/18 00:46:01;;;;;;;3.92;2.28;;;;;;;-146.07;100.00;70291.31;10366491;28;20365;-75
2022/01/18 00:51:09;;;;;;;3.78;2.30;;;;;;;-146.07;100.00;70291.31;10367049;28;20026;-75
2022/01/18 01:01:11;;;;;;;5.05;3.38;;;;;;;-146.07;100.00;70291.31;10365385;28;20041;-75
2022/01/18 01:06:12;;;;;;;4.90;3.63;;;;;;;-146.07;100.00;70291.31;10365025;28;20026;-75
2022/01/18 01:11:13;;;;;;;4.70;2.85;;;;;;;-146.07;100.00;70291.31;10364306;28;20033;-74
2022/01/18 01:42:55;;;;;;;4.90;3.03;;;;;;;-146.07;100.00;70291.31;10406043;28;20036;-76
2022/01/18 01:47:54;;;;;;;7.18;2.58;;;;;;;-146.07;100.00;70291.31;10406166;28;20064;-75
2022/01/18 01:52:56;;;;;;;10.32;3.47;;;;;;;-146.07;100.00;70291.31;10363507;28;20025;-75
2022/01/18 01:57:56;;;;;;;5.95;2.60;;;;;;;-146.07;100.00;70291.31;10365169;28;20037;-70
2022/01/18 02:02:57;;;;;;;4.43;3.85;;;;;;;-146.07;100.00;70291.31;10333479;28;20037;-71
2022/01/18 02:07:57;;;;;;;4.60;3.17;;;;;;;-146.07;100.00;70291.31;10346164;28;20113;-74
2022/01/18 02:12:58;;;;;;;4.60;3.55;;;;;;;-146.07;100.00;70291.31;10345741;28;20050;-76
2022/01/18 02:23:17;;;;;;;3.17;2.45;;;;;;;-146.07;100.00;70291.31;10363083;28;20888;-78
2022/01/18 02:28:22;;;;;;;3.08;1.45;;;;;;;-146.07;100.00;70291.31;10394290;28;20026;-72
2022/01/18 02:33:23;;;;;;;3.20;1.98;;;;;;;-146.07;100.00;70291.31;10403396;28;20029;-70
2022/01/18 02:38:24;;;;;;;2.00;1.80;;;;;;;-146.07;100.00;70291.31;10385590;28;20029;-70
2022/01/18 02:48:43;;;;;;;3.65;1.90;;;;;;;-146.07;100.00;70291.31;10403221;28;20041;-76
2022/01/18 02:54:00;;;;;;;5.82;1.13;;;;;;;-146.07;100.00;70291.31;10385179;28;20025;-71
2022/01/18 03:04:38;;;;;;;3.50;1.45;;;;;;;-146.07;100.00;70291.31;10390015;28;20034;-72
2022/01/18 03:09:39;;;;;;;2.65;2.45;;;;;;;-146.07;100.00;70291.31;10384821;28;20026;-73
2022/01/18 03:14:40;;;;;;;2.40;1.27;;;;;;;-146.07;100.00;70291.31;10363257;28;20033;-72
2022/01/18 03:19:40;;;;;;;2.92;1.30;;;;;;;-146.07;100.00;70291.31;10384503;28;20128;-72
2022/01/18 03:25:02;;;;;;;1.42;1.33;;;;;;;-146.07;100.00;70291.31;10383963;28;20029;-72
2022/01/18 03:30:06;;;;;;;2.45;1.20;;;;;;;-146.07;100.00;70291.31;10385280;28;20029;-73
2022/01/18 03:35:09;;;;;;;2.65;1.48;;;;;;;-146.07;100.00;70291.31;10402203;28;20022;-74
2022/01/18 03:40:10;;;;;;;4.25;1.67;;;;;;;-146.07;100.00;70291.31;10384493;28;20504;-75
2022/01/18 03:45:25;;;;;;;2.78;1.48;;;;;;;-146.07;100.00;70291.31;10357973;28;20112;-75
2022/01/18 03:50:26;;;;;;;1.55;1.40;;;;;;;-146.07;100.00;70291.31;10360483;28;20144;-75
2022/01/18 03:55:27;;;;;;;3.70;1.70;;;;;;;-146.07;100.00;70291.31;10360873;28;20026;-77
2022/01/18 04:00:28;;;;;;;2.67;1.15;;;;;;;-146.07;100.00;70291.31;10360531;28;20026;-72
2022/01/18 04:05:29;;;;;;;2.35;1.73;;;;;;;-146.07;100.00;70291.31;10359508;28;20057;-77
2022/01/18 04:10:30;;;;;;;1.40;1.30;;;;;;;-146.07;100.00;70291.31;10360644;28;20476;-75
2022/01/18 04:15:31;;;;;;;0.85;0.82;;;;;;;-146.07;100.00;70291.31;10360360;28;20064;-75
2022/01/18 04:26:01;;;;;;;3.75;1.38;;;;;;;-146.07;100.00;70291.31;10401816;28;20450;-71
2022/01/18 04:31:06;;;;;;;2.53;1.67;;;;;;;-146.07;100.00;70291.31;10360009;28;20394;-72
2022/01/18 04:36:08;;;;;;;2.00;1.58;;;;;;;-146.07;100.00;70291.31;10373578;28;20032;-75
2022/01/18 04:41:10;;;;;;;5.78;2.13;;;;;;;-146.07;100.00;70291.31;10390461;28;20021;-74
2022/01/18 04:51:30;;;;;;;2.03;1.77;;;;;;;-146.07;100.00;70291.31;10407426;28;20029;-76
2022/01/18 05:01:36;;;;;;;2.83;1.92;;;;;;;-146.07;100.00;70291.31;10406697;28;20045;-78
2022/01/18 05:06:37;;;;;;;2.10;1.33;;;;;;;-146.07;100.00;70291.31;10389105;28;20112;-73
2022/01/18 05:11:50;;;;;;;1.70;1.58;;;;;;;-146.07;100.00;70291.31;10388167;28;20347;-79
2022/01/18 05:16:58;;;;;;;4.10;2.17;;;;;;;-146.07;100.00;70291.31;10364735;28;20469;-78
2022/01/18 05:27:05;;;;;;;2.17;1.65;;;;;;;-146.07;100.00;70291.31;10332483;28;20045;-78
2022/01/18 05:32:06;;;;;;;8.50;2.80;;;;;;;-146.07;100.00;70291.31;10363423;28;20465;-76
2022/01/18 05:37:06;;;;;;;2.90;1.55;;;;;;;-146.07;100.00;70291.31;10347668;28;20026;-78
2022/01/18 05:42:07;;;;;;;2.83;1.95;;;;;;;-146.07;100.00;70291.31;10381104;28;20021;-77
2022/01/18 05:47:07;;;;;;;4.63;3.10;;;;;;;-146.07;100.00;70291.31;10404482;28;20036;-78
2022/01/18 05:52:12;;;;;;;5.93;2.25;;;;;;;-146.07;100.00;70291.31;10387075;28;20023;-77
2022/01/18 05:57:12;;;;;;;7.75;3.50;;;;;;;-146.07;100.00;70291.31;10384960;28;20525;-78
2022/01/18 06:02:16;;;;;;;4.18;2.92;;;;;;;-146.07;100.00;70291.31;10404362;28;20068;-78
2022/01/18 06:07:17;;;;;;;5.72;3.55;;;;;;;-146.07;100.00;70291.31;10387244;28;20060;-77
2022/01/18 06:12:18;;;;;;;4.05;3.33;;;;;;;-146.07;100.00;70291.31;10378858;28;20547;-77
2022/01/18 06:17:18;;;;;;;2.80;2.60;;;;;;;-146.07;100.00;70291.31;10356991;28;20061;-76
2022/01/18 06:22:19;;;;;;;3.83;3.38;;;;;;;-146.07;100.00;70291.31;10341800;28;20452;-73
2022/01/18 06:27:20;;;;;;;5.35;3.03;;;;;;;-146.07;100.00;70291.31;10325530;28;20419;-73
2022/01/18 06:32:21;;;;;;;10.85;3.38;;;;;;;-146.07;100.00;70291.31;10343829;28;20578;-74
2022/01/18 06:37:21;;;;;;;5.38;3.35;;;;;;;-146.07;100.00;70291.31;10345747;28;20025;-79
2022/01/18 06:42:24;;;;;;;3.17;2.85;;;;;;;-146.07;100.00;70291.31;10360668;28;20025;-77
2022/01/18 06:47:25;;;;;;;9.75;2.40;;;;;;;-146.07;100.00;70291.31;10361449;28;20033;-77
2022/01/18 06:52:25;;;;;;;3.60;3.10;;;;;;;-146.07;100.00;70291.31;10384875;28;20091;-78
2022/01/18 06:57:26;;;;;;;2.17;1.98;;;;;;;-146.07;100.00;70291.31;10385323;28;20371;-82
2022/01/18 07:02:26;;;;;;;2.38;2.17;;;;;;;-146.07;100.00;70291.31;10348573;28;20030;-82
2022/01/18 07:07:27;;;;;;;5.15;3.30;;;;;;;-146.07;100.00;70291.31;10362085;28;20029;-79
2022/01/18 07:12:33;;;;;;;6.03;3.15;;;;;;;-146.07;100.00;70291.31;10361807;28;20013;-80
2022/01/18 07:17:40;;;;;;;4.20;2.72;;;;;;;-146.07;100.00;70291.31;10361966;28;20061;-79
2022/01/18 07:22:48;;;;;;;7.43;3.42;;;;;;;-146.07;100.00;70291.31;10376498;28;20034;-83
2022/01/18 07:27:52;;;;;;;3.95;2.72;;;;;;;-146.07;100.00;70291.31;10401514;28;20029;-76
2022/01/18 07:32:52;;;;;;;4.93;4.43;;;;;;;-146.07;100.00;70291.31;10384304;28;20055;-77
2022/01/18 07:37:53;;;;;;;5.43;2.95;;;;;;;-146.07;100.00;70291.31;10384071;28;20028;-77
2022/01/18 07:42:54;;;;;;;5.15;3.22;;;;;;;-146.07;100.00;70291.31;10383646;28;20040;-79
2022/01/18 07:47:55;;;;;;;3.47;2.78;;;;;;;-146.07;100.00;70291.31;10362796;28;20096;-75
2022/01/18 07:52:56;;;;;;;3.30;3.00;;;;;;;-146.07;100.00;70291.31;10360756;28;20088;-80
2022/01/18 07:57:58;;;;;;;3.00;2.42;;;;;;;-146.07;100.00;70291.31;10358905;28;20034;-77
2022/01/18 08:02:58;;;;;;;4.30;2.25;;;;;;;-146.07;100.00;70291.31;10359205;28;20523;-79
2022/01/18 08:07:59;;;;;;;2.70;2.25;;;;;;;-146.07;100.00;70291.31;10360878;28;20033;-78
2022/01/18 08:13:03;;;;;;;6.18;3.60;;;;;;;-146.07;100.00;70291.31;10391058;28;20036;-78
2022/01/18 08:18:09;;;;;;;3.15;2.25;;;;;;;-146.07;100.00;70291.31;10409023;28;20065;-79
2022/01/18 08:23:10;;;;;;;3.15;2.22;;;;;;;-146.07;100.00;70291.31;10408837;28;20400;-77
2022/01/18 08:28:11;;;;;;;3.80;1.98;;;;;;;-146.07;100.00;70291.31;10409666;28;20029;-78
2022/01/18 08:33:11;;;;;;;4.10;2.70;;;;;;;-146.07;100.00;70291.31;10391733;28;20029;-77
2022/01/18 08:38:12;;;;;;;6.75;2.45;;;;;;;-146.07;100.00;70291.31;10390467;28;20427;-79
2022/01/18 08:43:12;;;;;;;4.97;2.50;;;;;;;-146.07;100.00;70291.31;10390043;28;20072;-80
2022/01/18 08:48:13;;;;;;;2.50;2.17;;;;;;;-146.07;100.00;70291.31;10390480;28;20029;-78
2022/01/18 08:53:13;;;;;;;6.90;2.65;;;;;;;-146.07;100.00;70291.31;10389474;28;20029;-78
2022/01/18 08:58:14;;;;;;;10.68;3.30;;;;;;;-146.07;100.00;70291.31;10389980;28;20446;-75
2022/01/18 09:03:15;;;;;;;8.60;2.40;;;;;;;-146.07;100.00;70291.31;10390150;28;20035;-76
2022/01/18 09:08:18;;;;;;;3.80;2.88;;;;;;;-146.07;100.00;70291.31;10389844;28;20455;-76
2022/01/18 09:13:19;;;;;;;4.53;1.90;;;;;;;-146.07;100.00;70291.31;10373389;28;20033;-78
2022/01/18 09:18:19;;;;;;;6.47;2.25;;;;;;;-146.07;100.00;70291.31;10388199;28;20554;-80
2022/01/18 09:23:20;;;;;;;3.20;1.60;;;;;;;-146.07;100.00;70291.31;10405663;28;20044;-74
2022/01/18 09:28:20;;;;;;;2.08;1.30;;;;;;;-146.07;100.00;70291.31;10372552;28;20032;-77
2022/01/18 09:33:21;;;;;;;6.28;2.42;;;;;;;-146.07;100.00;70291.31;10387754;28;20037;-74
2022/01/18 09:38:21;;;;;;;4.40;2.00;;;;;;;-146.07;100.00;70291.31;10388651;28;20018;-77
2022/01/18 09:43:21;;;;;;;3.40;1.70;;;;;;;-146.07;100.00;70291.31;10388583;28;20162;-73
2022/01/18 09:48:22;;;;;;;4.78;2.40;;;;;;;-146.07;100.00;70291.31;10388560;28;20025;-81
2022/01/18 09:53:22;;;;;;;3.60;2.25;;;;;;;-146.07;100.00;70291.31;10388158;28;20041;-74
2022/01/18 09:58:23;;;;;;;7.38;2.30;;;;;;;-146.07;100.00;70291.31;10388143;28;20276;-75
2022/01/18 10:03:25;;;;;;;4.78;2.13;;;;;;;-146.07;100.00;70291.31;10405994;28;20108;-81
2022/01/18 10:08:27;;;;;;;6.72;2.38;;;;;;;-146.07;100.00;70291.31;10387841;28;20025;-82
2022/01/18 10:13:34;;;;;;;2.72;2.00;;;;;;;-146.07;100.00;70291.31;10387061;28;20513;-80
2022/01/18 10:18:48;;;;;;;3.20;1.73;;;;;;;-146.07;100.00;70291.31;10386800;28;20060;-82
2022/01/18 10:23:49;;;;;;;4.35;1.88;;;;;;;-146.07;100.00;70291.31;10386936;28;20104;-78
2022/01/18 10:29:04;;;;;;;4.18;1.98;;;;;;;-146.07;100.00;70291.31;10385915;28;20025;-78
2022/01/18 10:39:41;;;;;;;15.85;2.45;;;;;;;-146.07;100.00;70291.31;10382539;28;20048;-74
2022/01/18 10:44:42;;;;;;;9.32;1.98;;;;;;;-146.07;100.00;70291.31;10386126;28;20487;-75
2022/01/18 10:49:47;;;;;;;2.95;1.15;;;;;;;-146.07;100.00;70291.31;10385586;28;20029;-79
2022/01/18 10:54:54;;;;;;;10.52;2.25;;;;;;;-146.07;100.00;70291.31;10385865;28;20018;-81
2022/01/18 11:00:05;;;;;;;9.67;2.17;;;;;;;-146.07;100.00;70291.31;10385124;28;20557;-74
2022/01/18 11:05:21;;;;;;;6.00;2.17;;;;;;;-146.07;100.00;70291.31;10385408;28;20025;-74
2022/01/18 11:10:24;;;;;;;13.73;1.95;;;;;;;-146.07;100.00;70291.31;10402448;28;20411;-81
2022/01/18 11:15:27;;;;;;;19.58;2.22;;;;;;;-146.07;100.00;70291.31;10384486;28;20431;-73
2022/01/18 11:20:34;;;;;;;7.00;1.77;;;;;;;-146.07;100.00;70291.31;10402475;28;20037;-82
2022/01/18 11:25:36;;;;;;;7.38;1.67;;;;;;;-146.07;100.00;70291.31;10378713;28;20569;-78
2022/01/18 11:30:45;;;;;;;5.13;1.63;;;;;;;-146.07;100.00;70291.31;10361489;28;20488;-76
2022/01/18 11:35:58;;;;;;;3.33;1.63;;;;;;;-146.07;100.00;70291.31;10360788;28;20029;-79
2022/01/18 11:40:59;;;;;;;11.82;2.00;;;;;;;-146.07;100.00;70291.31;10361049;28;20046;-77
2022/01/18 11:45:59;;;;;;;2.53;0.93;;;;;;;-146.07;100.00;70291.31;10368052;28;20470;-80
2022/01/18 11:51:05;;;;;;;5.35;2.15;;;;;;;-146.07;100.00;70291.31;10336162;28;20033;-76
2022/01/18 11:56:11;;;;;;;4.85;1.80;;;;;;;-146.07;100.00;70291.31;10370225;28;20025;-78
2022/01/18 12:01:13;;;;;;;5.25;1.70;;;;;;;-146.07;100.00;70291.31;10368324;28;20088;-79
2022/01/18 12:06:14;;;;;;;12.50;1.70;;;;;;;-146.07;100.00;70291.31;10368168;28;20026;-81
2022/01/18 12:11:21;;;;;;;3.60;1.65;;;;;;;-146.07;100.00;70291.31;10367415;28;20021;-76
2022/01/18 12:16:26;;;;;;;7.05;2.47;;;;;;;-146.07;100.00;70291.31;10351214;28;20077;-78
2022/01/18 12:21:29;;;;;;;11.38;3.22;;;;;;;-146.07;100.00;70291.31;10367916;28;20030;-80
2022/01/18 12:26:38;;;;;;;6.18;2.88;;;;;;;-146.07;100.00;70291.31;10350925;28;20397;-79
2022/01/18 12:36:46;;;;;;;5.72;2.67;;;;;;;-146.07;100.00;70291.31;10388559;28;20079;-75
2022/01/18 12:41:54;;;;;;;20.75;2.97;;;;;;;-146.07;100.00;70291.31;10391686;28;20052;-77
2022/01/18 12:47:00;;;;;;;3.67;2.15;;;;;;;-146.07;100.00;70291.31;10392343;28;20033;-76
2022/01/18 12:52:00;;;;;;;11.80;2.78;;;;;;;-146.07;100.00;70291.31;10375020;28;20497;-77
2022/01/18 12:57:15;;;;;;;6.05;3.13;;;;;;;-146.07;100.00;70291.31;10373501;28;20025;-73
2022/01/18 13:02:21;;;;;;;6.43;2.78;;;;;;;-146.07;100.00;70291.31;10374121;28;20403;-81
2022/01/18 13:07:21;;;;;;;12.23;3.53;;;;;;;-146.07;100.00;70291.31;10366165;28;20070;-79
2022/01/18 13:12:33;;;;;;;15.80;3.63;;;;;;;-146.07;100.00;70291.31;10358804;28;20089;-82
2022/01/18 13:23:04;;;;;;;6.05;2.95;;;;;;;-146.07;100.00;70291.31;10370493;28;20572;-74
2022/01/18 13:28:05;;;;;;;7.05;4.57;;;;;;;-146.07;100.00;70291.31;10372609;28;20041;-76
2022/01/18 13:33:06;;;;;;;5.60;2.47;;;;;;;-146.07;100.00;70291.31;10403177;28;20032;-74
2022/01/18 13:38:08;;;;;;;12.65;3.40;;;;;;;-146.07;100.00;70291.31;10419998;28;20490;-75
2022/01/18 13:43:12;;;;;;;12.57;2.63;;;;;;;-146.07;100.00;70291.31;10391604;28;20036;-77
2022/01/18 13:48:13;;;;;;;10.98;3.40;;;;;;;-146.07;100.00;70291.31;10374537;28;20036;-77
2022/01/18 13:53:28;;;;;;;7.93;2.92;;;;;;;-146.07;100.00;70291.31;10405413;28;20047;-79
2022/01/18 13:58:33;;;;;;;6.82;3.15;;;;;;;-146.07;100.00;70291.31;10357739;28;20026;-76
2022/01/18 14:03:36;;;;;;;8.30;3.80;;;;;;;-146.07;100.00;70291.31;10388674;28;20385;-78
2022/01/18 14:08:55;;;;;;;5.97;2.78;;;;;;;-146.07;100.00;70291.31;10361529;28;20117;-76
2022/01/18 14:13:56;;;;;;;3.00;2.35;;;;;;;-146.07;100.00;70291.31;10346394;28;20022;-77
2022/01/18 14:18:57;;;;;;;7.38;3.70;;;;;;;-146.07;100.00;70291.31;10346349;28;20046;-76
2022/01/18 14:24:16;;;;;;;11.93;3.28;;;;;;;-146.07;100.00;70291.31;10346490;28;20136;-73
2022/01/18 14:29:40;;;;;;;5.05;3.35;;;;;;;-146.07;100.00;70291.31;10329545;28;20032;-75
2022/01/18 14:34:48;;;;;;;8.73;3.13;;;;;;;-146.07;100.00;70291.31;10363371;28;20546;-73
2022/01/18 14:40:00;;;;;;;13.65;3.03;;;;;;;-146.07;100.00;70291.31;10361533;28;20022;-75
2022/01/18 14:45:19;;;;;;;12.45;3.10;;;;;;;-146.07;100.00;70291.31;10361567;28;20081;-77
2022/01/18 14:50:21;;;;;;;;;;;;;;;-146.07;100.00;70291.31;10363101;28;20195;-73
2022/01/18 14:55:25;;;;;;;4.88;2.67;;;;;;;-146.07;100.00;70291.31;10361516;28;19913;-79
2022/01/18 15:00:27;;;;;;;4.65;2.88;;;;;;;-146.07;100.00;70291.31;10362467;28;20037;-79
2022/01/18 15:05:28;;;;;;;6.63;2.60;;;;;;;-146.07;100.00;70291.31;10345097;28;20107;-74
2022/01/18 15:10:31;;;;;;;9.40;3.42;;;;;;;-146.07;100.00;70291.31;10361218;28;20711;-78
2022/01/18 15:15:32;;;;;;;9.18;2.70;;;;;;;-146.07;100.00;70291.31;10360770;28;20053;-71
2022/01/18 15:20:33;;;;;;;11.45;4.13;;;;;;;-146.07;100.00;70291.31;10363303;28;20030;-74
2022/01/18 15:25:34;;;;;;;8.15;3.13;;;;;;;-146.07;100.00;70291.31;10375482;28;20486;-72
2022/01/18 15:30:35;;;;;;;6.65;2.60;;;;;;;-146.07;100.00;70291.31;10344556;28;20489;-71
2022/01/18 15:35:35;;;;;;;8.20;2.58;;;;;;;-146.07;100.00;70291.31;10361709;28;20025;-73
2022/01/18 15:40:36;;;;;;;4.97;2.97;;;;;;;-146.07;100.00;70291.31;10345537;28;20125;-72
2022/01/18 15:45:36;;;;;;;5.07;4.05;;;;;;;-146.07;100.00;70291.31;10344011;28;20602;-71
2022/01/18 15:50:37;;;;;;;6.93;3.15;;;;;;;-146.07;100.00;70291.31;10359960;28;20105;-75
2022/01/18 15:55:37;;;;;;;8.85;3.80;;;;;;;-146.07;100.00;70291.31;10362924;28;20576;-70
2022/01/18 16:00:42;;;;;;;6.32;3.53;;;;;;;-146.07;100.00;70291.31;10345662;28;20074;-76
2022/01/18 16:05:44;;;;;;;4.95;2.60;;;;;;;-146.07;100.00;70291.31;10360247;28;20033;-78
2022/01/18 16:10:44;;;;;;;11.23;3.30;;;;;;;-146.07;100.00;70291.31;10345469;28;20030;-75
2022/01/18 16:15:45;;;;;;;11.23;3.67;;;;;;;-146.07;100.00;70291.31;10349667;28;20053;-72
2022/01/18 16:20:46;;;;;;;9.45;3.47;;;;;;;-146.07;100.00;70291.31;10345884;28;20034;-71
2022/01/18 16:25:47;;;;;;;9.00;3.85;;;;;;;-146.07;100.00;70291.31;10328231;28;20109;-74
2022/01/18 16:30:50;;;;;;;8.40;3.70;;;;;;;-146.07;100.00;70291.31;10355986;28;20047;-76
2022/01/18 16:35:51;;;;;;;13.77;5.78;;;;;;;-146.07;100.00;70291.31;10378022;28;20083;-73
2022/01/18 16:40:52;;;;;;;10.18;4.00;;;;;;;-146.07;100.00;70291.31;10372909;28;20030;-73
2022/01/18 16:45:52;;;;;;;4.90;3.00;;;;;;;-146.07;100.00;70291.31;10352783;28;20393;-76
2022/01/18 16:50:53;;;;;;;5.32;3.63;;;;;;;-146.07;100.00;70291.31;10350490;28;20022;-74
2022/01/18 16:55:53;;;;;;;9.50;3.75;;;;;;;-146.07;100.00;70291.31;10352639;28;20337;-75
2022/01/18 17:00:54;;;;;;;7.07;3.30;;;;;;;-146.07;100.00;70291.31;10384299;28;20101;-75
2022/01/18 17:05:54;;;;;;;5.50;4.35;;;;;;;-146.07;100.00;70291.31;10392624;28;20488;-74
2022/01/18 17:10:55;;;;;;;6.55;4.15;;;;;;;-146.07;100.00;70291.31;10376382;28;20535;-72
2022/01/18 17:15:55;;;;;;;6.72;3.53;;;;;;;-146.07;100.00;70291.31;10422756;28;20090;-72
2022/01/18 17:20:56;;;;;;;10.77;4.57;;;;;;;-146.07;100.00;70291.31;10385694;28;20037;-72
2022/01/18 17:25:57;;;;;;;17.40;5.78;;;;;;;-146.07;100.00;70291.31;10369410;28;20125;-72
2022/01/18 17:30:58;;;;;;;17.60;7.43;;;;;;;-146.07;100.00;70291.31;10412179;28;20036;-76
2022/01/18 17:35:58;;;;;;;5.22;4.10;;;;;;;-146.07;100.00;70291.31;10427844;28;20066;-72
2022/01/18 17:40:59;;;;;;;6.80;3.63;;;;;;;-146.07;100.00;70291.31;10426272;28;20414;-72
2022/01/18 17:45:59;;;;;;;9.07;4.47;;;;;;;-146.07;100.00;70291.31;10426021;28;20032;-77
2022/01/18 17:51:00;;;;;;;5.63;3.95;;;;;;;-146.07;100.00;70291.31;10365017;28;20512;-77
2022/01/18 17:56:01;;;;;;;13.10;4.40;;;;;;;-146.07;100.00;70291.31;10363372;28;20100;-72
2022/01/18 18:01:03;;;;;;;6.53;4.57;;;;;;;-146.07;100.00;70291.31;10360715;28;20484;-74
2022/01/18 18:06:03;;;;;;;17.45;4.72;;;;;;;-146.07;100.00;70291.31;10367878;28;20121;-73
2022/01/18 18:11:04;;;;;;;8.13;4.18;;;;;;;-146.07;100.00;70291.31;10361452;28;20033;-73
2022/01/18 18:16:04;;;;;;;10.43;4.50;;;;;;;-146.07;100.00;70291.31;10361684;28;20148;-77
2022/01/18 18:21:05;;;;;;;8.82;5.53;;;;;;;-146.07;100.00;70291.31;10361415;28;20065;-73
2022/01/18 18:26:06;;;;;;;16.95;4.47;;;;;;;-146.07;100.00;70291.31;10360143;28;20476;-73
2022/01/18 18:31:06;;;;;;;10.23;4.20;;;;;;;-146.07;100.00;70291.31;10344283;28;20037;-72
2022/01/18 18:36:07;;;;;;;6.28;3.67;;;;;;;-146.07;100.00;70291.31;10328422;28;20029;-73
2022/01/18 18:41:15;;;;;;;6.03;5.18;;;;;;;-146.07;100.00;70291.31;10360316;28;20030;-74
2022/01/18 18:46:16;;;;;;;8.95;4.45;;;;;;;-146.07;100.00;70291.31;10360951;28;20033;-73
2022/01/18 18:51:16;;;;;;;4.00;3.22;;;;;;;-146.07;100.00;70291.31;10362361;28;20040;-73
2022/01/18 18:56:17;;;;;;;9.80;4.35;;;;;;;-146.07;100.00;70291.31;10362318;28;20169;-76
2022/01/18 19:01:28;;;;;;;6.78;5.50;;;;;;;-146.07;100.00;70291.31;10360381;28;20411;-73
2022/01/18 19:06:28;;;;;;;8.93;4.88;;;;;;;-146.07;100.00;70291.31;10361676;28;20037;-74
2022/01/18 19:11:29;;;;;;;11.00;4.18;;;;;;;-146.07;100.00;70291.31;10343374;28;20029;-72
2022/01/18 19:16:35;;;;;;;12.35;6.05;;;;;;;-146.07;100.00;70291.31;10336960;28;20057;-72
2022/01/18 19:21:40;;;;;;;7.22;4.47;;;;;;;-146.07;100.00;70291.31;10368567;28;20145;-73
2022/01/18 19:26:41;;;;;;;9.55;4.50;;;;;;;-146.07;100.00;70291.31;10361086;28;20033;-73
2022/01/18 19:31:46;;;;;;;7.97;4.38;;;;;;;-146.07;100.00;70291.31;10359637;28;20503;-79
2022/01/18 19:36:49;;;;;;;7.95;5.03;;;;;;;-146.07;100.00;70291.31;10360401;28;20397;-78
2022/01/18 19:41:51;;;;;;;6.63;3.13;;;;;;;-146.07;100.00;70291.31;10384007;28;20057;-77
2022/01/18 19:46:52;;;;;;;7.68;4.28;;;;;;;-146.07;100.00;70291.31;10385049;28;20048;-77
2022/01/18 19:51:54;;;;;;;14.38;4.05;;;;;;;-146.07;100.00;70291.31;10340950;28;20042;-80
2022/01/18 19:56:56;;;;;;;6.10;4.80;;;;;;;-146.07;100.00;70291.31;10248659;28;20031;-75
2022/01/18 20:01:58;;;;;;;6.15;5.35;;;;;;;-146.07;100.00;70291.31;10301029;28;20120;-82
2022/01/18 20:06:58;;;;;;;8.95;5.22;;;;;;;-146.07;100.00;70291.31;10346092;28;20038;-75
2022/01/18 20:11:59;;;;;;;9.73;5.25;;;;;;;-146.07;100.00;70291.31;10350356;28;20021;-79
2022/01/18 20:17:05;;;;;;;6.90;4.45;;;;;;;-146.07;100.00;70291.31;10290445;28;20532;-79
2022/01/18 20:22:07;;;;;;;15.52;4.45;;;;;;;-146.07;100.00;70291.31;10298389;28;20048;-76
2022/01/18 20:27:33;;;;;;;8.40;5.45;;;;;;;-146.07;100.00;70291.31;10326333;28;20037;-77
2022/01/18 20:32:33;;;;;;;11.15;5.78;;;;;;;-146.07;100.00;70291.31;10326004;28;20038;-77
2022/01/18 20:37:34;;;;;;;12.98;6.38;;;;;;;-146.07;100.00;70291.31;10326844;28;20061;-72
2022/01/18 20:47:53;;;;;;;14.98;6.05;;;;;;;-146.07;100.00;70291.31;10290797;28;20631;-78
2022/01/18 20:52:54;;;;;;;12.50;5.55;;;;;;;-146.07;100.00;70291.31;10317603;28;20124;-72
2022/01/18 20:57:54;;;;;;;5.72;4.35;;;;;;;-146.07;100.00;70291.31;10309748;28;20037;-72
2022/01/18 21:02:55;;;;;;;9.90;5.30;;;;;;;-146.07;100.00;70291.31;10324835;28;20389;-72
2022/01/18 21:07:56;;;;;;;8.15;4.75;;;;;;;-146.07;100.00;70291.31;10334784;28;20022;-76
2022/01/18 21:12:59;;;;;;;10.90;4.80;;;;;;;-146.07;100.00;70291.31;10299218;28;20033;-73
2022/01/18 21:17:59;;;;;;;18.77;5.90;;;;;;;-146.07;100.00;70291.31;10284780;28;20735;-73
2022/01/18 21:23:01;;;;;;;11.13;5.35;;;;;;;-146.07;100.00;70291.31;10283179;28;20050;-74
2022/01/18 21:28:02;;;;;;;15.93;6.05;;;;;;;-146.07;100.00;70291.31;10283588;28;20118;-76
2022/01/18 21:33:06;;;;;;;10.52;5.95;;;;;;;-146.07;100.00;70291.31;10288192;28;20333;-72
2022/01/18 21:38:07;;;;;;;17.25;7.53;;;;;;;-146.07;100.00;70291.31;10307348;28;20045;-76
2022/01/18 21:43:09;;;;;;;14.50;5.93;;;;;;;-146.07;100.00;70291.31;10323529;28;20028;-76
2022/01/18 21:48:09;;;;;;;10.95;4.68;;;;;;;-146.07;100.00;70291.31;10324299;28;20037;-72
2022/01/18 21:53:10;;;;;;;8.75;4.97;;;;;;;-146.07;100.00;70291.31;10321470;28;20049;-76
2022/01/18 21:58:10;;;;;;;7.40;3.70;;;;;;;-146.07;100.00;70291.31;10323171;28;20038;-71
2022/01/18 22:03:11;;;;;;;7.35;4.57;;;;;;;-146.07;100.00;70291.31;10313520;28;20075;-72
2022/01/18 22:08:12;;;;;;;7.00;4.20;;;;;;;-146.07;100.00;70291.31;10327639;28;20033;-75
2022/01/18 22:13:13;;;;;;;12.60;5.00;;;;;;;-146.07;100.00;70291.31;10345019;28;20518;-73
2022/01/18 22:18:13;;;;;;;8.95;6.32;;;;;;;-146.07;100.00;70291.31;10347663;28;20046;-73
2022/01/18 22:23:14;;;;;;;9.63;7.10;;;;;;;-146.07;100.00;70291.31;10353912;28;20084;-77
2022/01/18 22:28:15;;;;;;;8.85;6.25;;;;;;;-146.07;100.00;70291.31;10371536;28;20037;-76
2022/01/18 22:33:16;;;;;;;8.85;5.18;;;;;;;-146.07;100.00;70291.31;10351902;28;20080;-72
2022/01/18 22:38:17;;;;;;;9.93;4.22;;;;;;;-146.07;100.00;70291.31;10328868;28;20084;-75
2022/01/18 22:43:18;;;;;;;7.75;5.35;;;;;;;-146.07;100.00;70291.31;10362694;28;20476;-75
2022/01/18 22:48:18;;;;;;;10.63;3.92;;;;;;;-146.07;100.00;70291.31;10345013;28;20124;-71
2022/01/18 22:53:19;;;;;;;11.10;5.53;;;;;;;-146.07;100.00;70291.31;10361021;28;20022;-72
2022/01/18 22:58:19;;;;;;;10.55;5.40;;;;;;;-146.07;100.00;70291.31;10361678;28;20117;-71
2022/01/18 23:03:22;;;;;;;6.43;4.93;;;;;;;-146.07;100.00;70291.31;10309412;28;20035;-71
2022/01/18 23:08:23;;;;;;;9.23;4.68;;;;;;;-146.07;100.00;70291.31;10292094;28;20121;-74
2022/01/18 23:13:26;;;;;;;6.22;4.88;;;;;;;-146.07;100.00;70291.31;10280866;28;20018;-76
2022/01/18 23:18:27;;;;;;;12.20;4.90;;;;;;;-146.07;100.00;70291.31;10290924;28;20074;-75
2022/01/18 23:23:27;;;;;;;8.85;5.00;;;;;;;-146.07;100.00;70291.31;10295262;28;20133;-70
2022/01/18 23:28:30;;;;;;;10.93;5.55;;;;;;;-146.07;100.00;70291.31;10280570;28;20027;-73
2022/01/18 23:33:30;;;;;;;8.75;5.85;;;;;;;-146.07;100.00;70291.31;10280525;28;20031;-76
2022/01/18 23:38:35;;;;;;;9.25;5.75;;;;;;;-146.07;100.00;70291.31;10278718;28;20041;-79
2022/01/18 23:43:36;;;;;;;7.35;4.43;;;;;;;-146.07;100.00;70291.31;10278582;28;20317;-76
2022/01/18 23:48:37;;;;;;;7.22;4.78;;;;;;;-146.07;100.00;70291.31;10278937;28;20030;-75
2022/01/18 23:53:38;;;;;;;9.73;5.50;;;;;;;-146.07;100.00;70291.31;10280337;28;20070;-71
2022/01/18 23:58:39;;;;;;;6.32;5.72;;;;;;;-146.07;100.00;70291.31;10278938;28;20041;-78
